createdAt,value
2022-10-22T00:00:43.632Z,100.00
2022-10-22T00:03:10.316Z,100.00
2022-10-22T00:05:37.027Z,100.00
2022-10-22T00:08:03.703Z,100.00
2022-10-22T00:10:30.404Z,100.00
2022-10-22T00:12:57.007Z,100.00
2022-10-22T00:15:27.049Z,100.00
2022-10-22T00:17:56.701Z,100.00
2022-10-22T00:20:25.570Z,100.00
2022-10-22T00:25:18.856Z,100.00
2022-10-22T00:27:45.486Z,100.00
2022-10-22T00:30:12.809Z,100.00
2022-10-22T00:32:39.698Z,100.00
2022-10-22T00:35:06.923Z,100.00
2022-10-22T00:37:33.544Z,100.00
2022-10-22T00:40:00.188Z,100.00
2022-10-22T00:42:30.387Z,100.00
2022-10-22T00:45:03.113Z,100.00
2022-10-22T00:47:39.073Z,100.00
2022-10-22T00:50:09.724Z,100.00
2022-10-22T00:52:36.807Z,100.00
2022-10-22T00:55:04.354Z,100.00
2022-10-22T00:57:31.057Z,100.00
2022-10-22T00:59:58.452Z,100.00
2022-10-22T01:02:27.677Z,100.00
2022-10-22T01:04:54.278Z,100.00
2022-10-22T01:07:22.854Z,100.00
2022-10-22T01:10:12.022Z,100.00
2022-10-22T01:13:16.950Z,100.00
2022-10-22T01:16:02.273Z,100.00
2022-10-22T01:19:06.791Z,100.00
2022-10-22T01:21:42.052Z,100.00
2022-10-22T01:24:20.864Z,100.00
2022-10-22T01:27:03.931Z,100.00
2022-10-22T01:29:35.070Z,100.00
2022-10-22T01:32:07.294Z,100.00
2022-10-22T01:34:35.120Z,100.00
2022-10-22T01:37:03.119Z,100.00
2022-10-22T01:39:36.870Z,100.00
2022-10-22T01:42:04.279Z,100.00
2022-10-22T01:44:33.841Z,100.00
2022-10-22T01:47:31.481Z,100.00
2022-10-22T01:50:10.346Z,100.00
2022-10-22T01:52:57.101Z,100.00
2022-10-22T01:55:45.252Z,100.00
2022-10-22T01:58:23.927Z,100.00
2022-10-22T02:01:22.641Z,100.00
2022-10-22T02:04:10.451Z,100.00
2022-10-22T02:06:40.953Z,100.00
2022-10-22T02:09:09.438Z,100.00
2022-10-22T02:11:36.448Z,100.00
2022-10-22T02:14:05.348Z,100.00
2022-10-22T02:16:38.630Z,100.00
2022-10-22T02:19:14.583Z,100.00
2022-10-22T02:21:41.322Z,100.00
2022-10-22T02:24:08.144Z,100.00
2022-10-22T02:26:51.440Z,100.00
2022-10-22T02:29:33.297Z,100.00
2022-10-22T02:32:05.956Z,100.00
2022-10-22T02:34:35.341Z,100.00
2022-10-22T02:37:04.257Z,100.00
2022-10-22T02:39:36.234Z,100.00
2022-10-22T02:42:04.090Z,100.00
2022-10-22T02:44:33.423Z,100.00
2022-10-22T02:47:00.478Z,100.00
2022-10-22T02:49:28.220Z,100.00
2022-10-22T02:51:54.762Z,100.00
2022-10-22T02:54:21.370Z,100.00
2022-10-22T02:56:47.923Z,100.00
2022-10-22T02:59:14.518Z,100.00
2022-10-22T03:01:41.173Z,100.00
2022-10-22T03:04:07.788Z,100.00
2022-10-22T03:06:37.463Z,100.00
2022-10-22T03:09:07.064Z,100.00
2022-10-22T03:11:36.525Z,100.00
2022-10-22T03:14:06.512Z,100.00
2022-10-22T03:16:35.042Z,100.00
2022-10-22T03:19:04.066Z,100.00
2022-10-22T03:21:53.234Z,100.00
2022-10-22T03:24:24.106Z,100.00
2022-10-22T03:26:52.211Z,100.00
2022-10-22T03:29:22.172Z,100.00
2022-10-22T03:31:48.757Z,100.00
2022-10-22T03:34:15.945Z,100.00
2022-10-22T03:36:42.581Z,100.00
2022-10-22T03:39:12.732Z,100.00
2022-10-22T03:41:39.546Z,100.00
2022-10-22T03:44:09.653Z,100.00
2022-10-22T03:46:39.165Z,100.00
2022-10-22T03:49:08.874Z,100.00
2022-10-22T03:51:38.699Z,100.00
2022-10-22T03:54:08.339Z,100.00
2022-10-22T03:56:38.415Z,100.00
2022-10-22T03:59:08.322Z,100.00
2022-10-22T04:01:37.566Z,100.00
2022-10-22T04:04:04.179Z,100.00
2022-10-22T04:06:31.028Z,100.00
2022-10-22T04:08:57.750Z,100.00
2022-10-22T04:11:24.369Z,100.00
2022-10-22T04:13:51.000Z,100.00
2022-10-22T04:16:20.442Z,100.00
2022-10-22T04:18:49.132Z,100.00
2022-10-22T04:21:19.787Z,100.00
2022-10-22T04:23:51.280Z,100.00
2022-10-22T04:26:18.928Z,100.00
2022-10-22T04:28:46.520Z,100.00
2022-10-22T04:31:16.608Z,100.00
2022-10-22T04:33:43.369Z,100.00
2022-10-22T04:36:12.023Z,100.00
2022-10-22T04:38:43.070Z,100.00
2022-10-22T04:41:19.683Z,100.00
2022-10-22T04:43:46.888Z,100.00
2022-10-22T04:46:15.925Z,100.00
2022-10-22T04:48:44.632Z,100.00
2022-10-22T04:51:16.735Z,100.00
2022-10-22T04:53:44.753Z,100.00
2022-10-22T04:56:21.781Z,100.00
2022-10-22T04:58:49.855Z,100.00
2022-10-22T05:01:22.092Z,100.00
2022-10-22T05:03:50.497Z,100.00
2022-10-22T05:06:17.337Z,100.00
2022-10-22T05:08:44.521Z,100.00
2022-10-22T05:11:20.052Z,100.00
2022-10-22T05:13:47.058Z,100.00
2022-10-22T05:16:14.278Z,100.00
2022-10-22T05:18:45.506Z,100.00
2022-10-22T05:21:17.730Z,100.00
2022-10-22T05:23:45.783Z,100.00
2022-10-22T05:26:19.066Z,100.00
2022-10-22T05:28:46.987Z,100.00
2022-10-22T05:31:14.327Z,100.00
2022-10-22T05:33:42.993Z,100.00
2022-10-22T05:36:13.515Z,100.00
2022-10-22T05:38:42.774Z,100.00
2022-10-22T05:41:24.125Z,100.00
2022-10-22T05:43:51.206Z,100.00
2022-10-22T05:46:22.905Z,100.00
2022-10-22T05:48:58.351Z,100.00
2022-10-22T05:51:26.397Z,100.00
2022-10-22T05:53:59.427Z,100.00
2022-10-22T05:56:28.089Z,100.00
2022-10-22T05:58:55.006Z,100.00
2022-10-22T06:01:27.480Z,100.00
2022-10-22T06:03:56.400Z,100.00
2022-10-22T06:06:34.750Z,100.00
2022-10-22T06:09:05.965Z,100.00
2022-10-22T06:11:35.099Z,100.00
2022-10-22T06:14:02.061Z,100.00
2022-10-22T06:16:30.438Z,100.00
2022-10-22T06:19:00.040Z,100.00
2022-10-22T06:21:26.550Z,100.00
2022-10-22T06:23:55.291Z,100.00
2022-10-22T06:26:21.766Z,100.00
2022-10-22T06:28:48.322Z,100.00
2022-10-22T06:31:14.976Z,100.00
2022-10-22T06:33:45.028Z,100.00
2022-10-22T06:36:19.020Z,100.00
2022-10-22T06:38:45.806Z,100.00
2022-10-22T06:41:15.655Z,100.00
2022-10-22T06:43:47.094Z,100.00
2022-10-22T06:46:18.993Z,100.00
2022-10-22T06:48:57.225Z,100.00
2022-10-22T06:51:24.312Z,100.00
2022-10-22T06:53:51.055Z,100.00
2022-10-22T06:56:20.706Z,100.00
2022-10-22T06:58:51.115Z,100.00
2022-10-22T07:01:19.973Z,100.00
2022-10-22T07:03:46.563Z,100.00
2022-10-22T07:06:14.750Z,100.00
2022-10-22T07:08:42.629Z,100.00
2022-10-22T07:11:18.134Z,100.00
2022-10-22T07:13:45.766Z,100.00
2022-10-22T07:16:12.781Z,98.93
2022-10-22T07:18:43.149Z,90.99
2022-10-22T07:21:14.704Z,90.31
2022-10-22T07:23:44.680Z,84.13
2022-10-22T07:26:14.650Z,78.00
2022-10-22T07:28:44.235Z,74.83
2022-10-22T07:31:15.285Z,73.34
2022-10-22T07:33:41.914Z,72.91
2022-10-22T07:36:11.976Z,74.27
2022-10-22T07:38:40.628Z,72.17
2022-10-22T07:41:07.144Z,72.45
2022-10-22T07:43:33.692Z,73.16
2022-10-22T07:46:00.465Z,69.68
2022-10-22T07:48:32.965Z,67.49
2022-10-22T07:50:59.567Z,65.90
2022-10-22T07:53:32.851Z,66.09
2022-10-22T07:55:59.607Z,64.62
2022-10-22T07:58:26.403Z,65.58
2022-10-22T08:00:57.015Z,64.46
2022-10-22T08:03:23.632Z,65.57
2022-10-22T08:05:51.724Z,66.23
2022-10-22T08:08:19.566Z,67.89
2022-10-22T08:10:47.737Z,70.08
2022-10-22T08:13:15.053Z,72.25
2022-10-22T08:15:50.466Z,71.67
2022-10-22T08:18:19.013Z,73.44
2022-10-22T08:20:45.960Z,75.90
2022-10-22T08:23:13.513Z,74.17
2022-10-22T08:25:42.472Z,74.49
2022-10-22T08:28:12.777Z,76.57
2022-10-22T08:30:45.082Z,73.09
2022-10-22T08:33:15.236Z,72.69
2022-10-22T08:35:49.863Z,69.79
2022-10-22T08:38:16.959Z,69.08
2022-10-22T08:43:38.695Z,66.80
2022-10-22T08:46:40.252Z,69.20
2022-10-22T08:49:17.864Z,70.81
2022-10-22T08:51:45.239Z,70.39
2022-10-22T08:54:41.958Z,69.50
2022-10-22T08:57:09.011Z,67.87
2022-10-22T09:00:02.126Z,65.10
2022-10-22T09:02:38.525Z,63.52
2022-10-22T09:05:27.577Z,61.14
2022-10-22T09:07:55.483Z,59.63
2022-10-22T09:10:27.477Z,56.49
2022-10-22T09:12:54.356Z,54.85
2022-10-22T09:15:21.886Z,55.51
2022-10-22T09:18:14.311Z,53.63
2022-10-22T09:20:56.766Z,54.50
2022-10-22T09:23:29.104Z,53.52
2022-10-22T09:25:57.087Z,50.61
2022-10-22T09:28:24.213Z,52.04
2022-10-22T09:30:51.124Z,53.95
2022-10-22T09:33:27.637Z,52.54
2022-10-22T09:35:57.532Z,51.57
2022-10-22T09:38:32.221Z,51.13
2022-10-22T09:41:00.943Z,49.76
2022-10-22T09:43:27.432Z,50.97
2022-10-22T09:46:03.084Z,48.11
2022-10-22T09:48:36.577Z,48.38
2022-10-22T09:51:18.161Z,48.03
2022-10-22T09:53:56.185Z,51.05
2022-10-22T09:56:37.956Z,51.35
2022-10-22T09:59:04.946Z,50.14
2022-10-22T10:01:35.099Z,52.88
2022-10-22T10:04:17.467Z,53.67
2022-10-22T10:06:45.125Z,53.42
2022-10-22T10:09:16.939Z,53.26
2022-10-22T10:11:51.961Z,48.76
2022-10-22T10:14:30.834Z,49.71
2022-10-22T10:17:12.131Z,49.60
2022-10-22T10:20:15.132Z,46.05
2022-10-22T10:23:03.114Z,49.14
2022-10-22T10:26:14.486Z,47.49
2022-10-22T10:28:52.073Z,48.47
2022-10-22T10:31:43.276Z,48.82
2022-10-22T10:34:43.628Z,49.68
2022-10-22T10:37:26.785Z,48.19
2022-10-22T10:40:05.102Z,46.98
2022-10-22T10:42:44.912Z,48.20
2022-10-22T10:45:29.852Z,49.63
2022-10-22T10:48:12.719Z,47.99
2022-10-22T10:50:54.230Z,49.53
2022-10-22T10:53:43.816Z,47.51
2022-10-22T10:56:19.645Z,47.39
2022-10-22T10:59:01.581Z,46.11
2022-10-22T11:01:42.226Z,44.55
2022-10-22T11:04:31.610Z,42.74
2022-10-22T11:07:11.148Z,43.76
2022-10-22T11:09:50.907Z,42.24
2022-10-22T11:12:23.818Z,45.56
2022-10-22T11:15:12.784Z,43.02
2022-10-22T11:17:46.245Z,43.10
2022-10-22T11:20:28.078Z,42.09
2022-10-22T11:23:22.187Z,43.93
2022-10-22T11:25:50.556Z,41.21
2022-10-22T11:28:26.034Z,43.75
2022-10-22T11:31:00.320Z,42.22
2022-10-22T11:33:32.311Z,43.32
2022-10-22T11:36:01.674Z,42.75
2022-10-22T11:38:30.689Z,42.07
2022-10-22T11:41:07.258Z,41.05
2022-10-22T11:43:55.766Z,40.09
2022-10-22T11:46:22.608Z,38.65
2022-10-22T11:49:26.600Z,38.54
2022-10-22T11:52:23.407Z,37.53
2022-10-22T11:54:54.593Z,39.14
2022-10-22T11:57:26.987Z,39.42
2022-10-22T11:59:58.533Z,40.29
2022-10-22T12:02:27.933Z,40.16
2022-10-22T12:05:22.485Z,40.68
2022-10-22T12:07:57.107Z,39.79
2022-10-22T12:10:34.447Z,41.07
2022-10-22T12:13:22.935Z,39.08
2022-10-22T12:15:53.353Z,38.83
2022-10-22T12:18:25.977Z,39.91
2022-10-22T12:20:55.381Z,38.85
2022-10-22T12:23:28.718Z,38.67
2022-10-22T12:25:55.604Z,39.82
2022-10-22T12:28:22.878Z,39.28
2022-10-22T12:30:49.701Z,39.03
2022-10-22T12:33:23.496Z,36.99
2022-10-22T12:35:54.052Z,38.98
2022-10-22T12:38:23.474Z,36.54
2022-10-22T12:40:51.486Z,35.59
2022-10-22T12:43:23.868Z,35.23
2022-10-22T12:45:51.426Z,35.49
2022-10-22T12:48:22.544Z,35.14
2022-10-22T12:50:52.528Z,35.84
2022-10-22T12:53:24.012Z,35.91
2022-10-22T12:55:53.168Z,36.90
2022-10-22T12:58:25.671Z,36.83
2022-10-22T13:00:57.513Z,38.76
2022-10-22T13:03:28.463Z,37.86
2022-10-22T13:05:55.055Z,38.43
2022-10-22T13:08:26.792Z,38.68
2022-10-22T13:10:55.436Z,38.03
2022-10-22T13:13:34.018Z,37.66
2022-10-22T13:16:33.355Z,37.74
2022-10-22T13:19:00.005Z,38.13
2022-10-22T13:21:33.919Z,37.32
2022-10-22T13:24:02.915Z,37.49
2022-10-22T13:26:37.681Z,38.17
2022-10-22T13:29:12.074Z,38.77
2022-10-22T13:31:50.123Z,39.34
2022-10-22T13:34:25.678Z,39.00
2022-10-22T13:36:52.615Z,38.64
2022-10-22T13:39:24.204Z,37.32
2022-10-22T13:41:51.795Z,38.77
2022-10-22T13:44:19.857Z,39.38
2022-10-22T13:46:49.571Z,39.28
2022-10-22T13:49:23.409Z,40.40
2022-10-22T13:51:51.336Z,39.24
2022-10-22T13:54:23.776Z,37.43
2022-10-22T13:56:50.336Z,36.11
2022-10-22T13:59:22.818Z,37.16
2022-10-22T14:01:51.011Z,38.81
2022-10-22T14:04:18.181Z,38.74
2022-10-22T14:06:45.304Z,39.05
2022-10-22T14:09:16.153Z,39.34
2022-10-22T14:11:43.539Z,39.56
2022-10-22T14:14:14.235Z,39.02
2022-10-22T14:16:41.032Z,40.13
2022-10-22T14:19:14.517Z,40.53
2022-10-22T14:21:41.020Z,39.98
2022-10-22T14:24:12.921Z,39.96
2022-10-22T14:26:40.083Z,41.20
2022-10-22T14:29:10.980Z,41.19
2022-10-22T14:31:43.394Z,40.82
2022-10-22T14:34:13.174Z,41.38
2022-10-22T14:36:39.713Z,41.82
2022-10-22T14:39:06.316Z,41.49
2022-10-22T14:41:35.205Z,41.61
2022-10-22T14:44:01.788Z,39.33
2022-10-22T14:46:28.501Z,39.21
2022-10-22T14:48:55.034Z,37.54
2022-10-22T14:51:22.062Z,38.35
2022-10-22T14:53:51.547Z,38.83
2022-10-22T14:56:24.636Z,40.11
2022-10-22T14:58:51.484Z,39.62
2022-10-22T15:01:22.017Z,39.30
2022-10-22T15:03:51.707Z,40.76
2022-10-22T15:06:21.164Z,42.41
2022-10-22T15:08:50.885Z,40.82
2022-10-22T15:11:50.491Z,41.83
2022-10-22T15:14:19.452Z,42.68
2022-10-22T15:16:46.031Z,42.61
2022-10-22T15:19:12.633Z,42.75
2022-10-22T15:21:39.558Z,42.06
2022-10-22T15:24:07.312Z,40.16
2022-10-22T15:26:34.348Z,40.18
2022-10-22T15:29:03.746Z,40.23
2022-10-22T15:31:52.128Z,40.17
2022-10-22T15:34:23.492Z,39.85
2022-10-22T15:36:58.451Z,39.69
2022-10-22T15:39:25.758Z,42.41
2022-10-22T15:41:53.121Z,42.33
2022-10-22T15:44:28.776Z,42.88
2022-10-22T15:46:56.041Z,43.34
2022-10-22T15:49:27.353Z,45.19
2022-10-22T15:51:54.747Z,48.41
2022-10-22T15:54:28.974Z,51.32
2022-10-22T15:56:59.999Z,54.47
2022-10-22T15:59:26.594Z,55.03
2022-10-22T16:01:53.199Z,56.83
2022-10-22T16:04:21.964Z,58.96
2022-10-22T16:06:54.848Z,59.12
2022-10-22T16:09:27.397Z,59.55
2022-10-22T16:11:55.143Z,60.69
2022-10-22T16:14:24.103Z,63.74
2022-10-22T16:16:52.940Z,63.14
2022-10-22T16:19:24.267Z,62.90
2022-10-22T16:21:55.439Z,63.46
2022-10-22T16:24:24.865Z,63.36
2022-10-22T16:26:54.152Z,63.57
2022-10-22T16:29:23.075Z,64.40
2022-10-22T16:31:49.599Z,65.44
2022-10-22T16:34:16.161Z,66.37
2022-10-22T16:36:44.158Z,67.31
2022-10-22T16:39:10.725Z,68.88
2022-10-22T16:41:37.246Z,63.78
2022-10-22T16:44:07.765Z,65.59
2022-10-22T16:46:38.334Z,65.16
2022-10-22T16:49:06.191Z,65.76
2022-10-22T16:51:33.342Z,66.36
2022-10-22T16:53:59.904Z,62.22
2022-10-22T16:56:26.955Z,62.20
2022-10-22T16:58:57.621Z,61.97
2022-10-22T17:01:29.748Z,63.16
2022-10-22T17:03:59.040Z,64.98
2022-10-22T17:06:26.073Z,64.82
2022-10-22T17:08:55.637Z,66.53
2022-10-22T17:11:29.857Z,64.59
2022-10-22T17:13:56.399Z,63.25
2022-10-22T17:16:27.771Z,63.71
2022-10-22T17:18:58.308Z,63.98
2022-10-22T17:21:28.002Z,65.33
2022-10-22T17:23:58.018Z,67.21
2022-10-22T17:26:27.993Z,67.27
2022-10-22T17:28:57.630Z,67.73
2022-10-22T17:31:28.126Z,67.13
2022-10-22T17:33:57.724Z,66.44
2022-10-22T17:36:31.926Z,67.16
2022-10-22T17:39:05.399Z,67.31
2022-10-22T17:41:34.760Z,66.79
2022-10-22T17:44:06.241Z,67.28
2022-10-22T17:46:33.027Z,69.27
2022-10-22T17:49:03.829Z,69.13
2022-10-22T17:51:31.314Z,69.10
2022-10-22T17:53:58.030Z,67.27
2022-10-22T17:56:30.218Z,68.11
2022-10-22T17:59:02.731Z,69.29
2022-10-22T18:01:31.583Z,69.34
2022-10-22T18:04:07.814Z,69.87
2022-10-22T18:06:35.156Z,70.06
2022-10-22T18:09:06.379Z,70.29
2022-10-22T18:11:34.438Z,68.99
2022-10-22T18:14:01.073Z,68.25
2022-10-22T18:16:28.090Z,71.54
2022-10-22T18:18:57.536Z,73.84
2022-10-22T18:21:29.417Z,71.01
2022-10-22T18:23:59.339Z,69.86
2022-10-22T18:26:30.039Z,70.08
2022-10-22T18:29:00.430Z,70.06
2022-10-22T18:31:30.464Z,70.52
2022-10-22T18:34:00.071Z,70.27
2022-10-22T18:36:30.094Z,70.16
2022-10-22T18:38:59.581Z,69.68
2022-10-22T18:41:28.968Z,69.68
2022-10-22T18:43:59.075Z,69.71
2022-10-22T18:46:39.712Z,70.37
2022-10-22T18:49:10.442Z,70.79
2022-10-22T18:51:40.078Z,73.85
2022-10-22T18:54:22.221Z,75.25
2022-10-22T18:56:50.144Z,75.91
2022-10-22T18:59:22.389Z,76.27
2022-10-22T19:02:00.044Z,75.95
2022-10-22T19:04:36.862Z,75.12
2022-10-22T19:09:35.787Z,68.61
2022-10-22T19:12:02.652Z,67.46
2022-10-22T19:14:32.725Z,67.73
2022-10-22T19:17:02.601Z,68.47
2022-10-22T19:19:32.359Z,68.40
2022-10-22T19:22:02.080Z,67.25
2022-10-22T19:24:31.702Z,68.25
2022-10-22T19:27:00.712Z,67.74
2022-10-22T19:29:33.379Z,66.24
2022-10-22T19:32:03.104Z,65.06
2022-10-22T19:34:33.528Z,65.70
2022-10-22T19:37:04.128Z,64.98
2022-10-22T19:39:30.661Z,65.21
2022-10-22T19:42:00.073Z,64.80
2022-10-22T19:44:26.669Z,65.42
2022-10-22T19:46:53.308Z,65.69
2022-10-22T19:49:22.164Z,65.96
2022-10-22T19:51:49.672Z,66.05
2022-10-22T19:54:18.596Z,66.59
2022-10-22T19:56:46.430Z,67.44
2022-10-22T19:59:15.219Z,66.54
2022-10-22T20:01:41.860Z,67.19
2022-10-22T20:04:14.216Z,67.67
2022-10-22T20:06:40.762Z,67.95
2022-10-22T20:09:07.516Z,68.24
2022-10-22T20:11:34.325Z,69.40
2022-10-22T20:14:01.092Z,69.30
2022-10-22T20:16:32.414Z,69.19
2022-10-22T20:19:04.759Z,69.74
2022-10-22T20:21:34.832Z,70.46
2022-10-22T20:24:02.410Z,69.72
2022-10-22T20:26:32.325Z,68.89
2022-10-22T20:29:01.670Z,69.95
2022-10-22T20:31:31.378Z,69.86
2022-10-22T20:34:04.188Z,70.27
2022-10-22T20:36:33.756Z,70.37
2022-10-22T20:39:08.647Z,70.64
2022-10-22T20:41:38.189Z,70.64
2022-10-22T20:44:09.736Z,71.63
2022-10-22T20:46:36.541Z,71.67
2022-10-22T20:49:09.875Z,72.64
2022-10-22T20:51:37.260Z,71.62
2022-10-22T20:54:06.292Z,71.38
2022-10-22T20:56:35.225Z,71.61
2022-10-22T20:59:05.719Z,72.19
2022-10-22T21:01:50.391Z,72.83
2022-10-22T21:04:18.504Z,73.12
2022-10-22T21:06:45.354Z,73.50
2022-10-22T21:09:13.812Z,73.79
2022-10-22T21:11:42.781Z,73.90
2022-10-22T21:14:11.177Z,73.38
2022-10-22T21:16:41.187Z,73.22
2022-10-22T21:19:07.777Z,73.71
2022-10-22T21:21:37.760Z,73.22
2022-10-22T21:24:07.890Z,73.85
2022-10-22T21:26:42.940Z,74.77
2022-10-22T21:29:12.262Z,75.77
2022-10-22T21:31:40.447Z,75.65
2022-10-22T21:34:07.378Z,75.10
2022-10-22T21:36:37.001Z,75.08
2022-10-22T21:39:07.259Z,75.18
2022-10-22T21:41:38.328Z,74.31
2022-10-22T21:44:07.880Z,74.45
2022-10-22T21:46:37.453Z,75.05
2022-10-22T21:49:07.956Z,75.97
2022-10-22T21:51:38.384Z,75.29
2022-10-22T21:54:08.191Z,74.83
2022-10-22T21:56:36.782Z,75.67
2022-10-22T21:59:08.658Z,75.80
2022-10-22T22:01:38.471Z,75.81
2022-10-22T22:04:06.662Z,75.94
2022-10-22T22:06:36.246Z,76.14
2022-10-22T22:09:07.791Z,76.07
2022-10-22T22:11:37.600Z,77.17
2022-10-22T22:14:04.218Z,76.85
2022-10-22T22:16:33.331Z,76.53
2022-10-22T22:21:30.805Z,77.00
2022-10-22T22:23:58.180Z,77.30
2022-10-22T22:26:29.643Z,77.60
2022-10-22T22:28:58.547Z,77.82
2022-10-22T22:31:28.205Z,77.97
2022-10-22T22:34:05.822Z,78.18
2022-10-22T22:36:38.771Z,77.30
2022-10-22T22:39:08.996Z,77.51
2022-10-22T22:41:35.542Z,78.64
2022-10-22T22:44:02.305Z,77.77
2022-10-22T22:46:29.496Z,78.38
2022-10-22T22:48:56.157Z,78.54
2022-10-22T22:51:23.110Z,79.78
2022-10-22T22:53:50.025Z,79.64
2022-10-22T22:56:22.829Z,79.91
2022-10-22T22:58:49.539Z,79.23
2022-10-22T23:01:16.288Z,79.93
2022-10-22T23:03:44.444Z,79.94
2022-10-22T23:06:11.833Z,79.38
2022-10-22T23:08:42.263Z,79.54
2022-10-22T23:11:12.371Z,79.11
2022-10-22T23:13:42.018Z,79.82
2022-10-22T23:16:17.860Z,79.95
2022-10-22T23:18:46.280Z,79.58
2022-10-22T23:21:17.162Z,79.23
2022-10-22T23:23:49.405Z,79.59
2022-10-22T23:26:19.626Z,79.09
2022-10-22T23:28:46.870Z,79.33
2022-10-22T23:31:15.426Z,79.13
2022-10-22T23:33:45.752Z,79.09
2022-10-22T23:36:12.830Z,79.49
2022-10-22T23:38:42.380Z,78.09
2022-10-22T23:41:12.804Z,78.35
2022-10-22T23:43:41.535Z,79.17
2022-10-22T23:46:11.675Z,78.77
2022-10-22T23:48:39.362Z,78.45
2022-10-22T23:51:17.390Z,78.39
2022-10-22T23:53:45.141Z,78.71
2022-10-22T23:56:17.463Z,78.01
2022-10-22T23:58:44.850Z,78.42
